sensor_id;sensor_type;location;lat;lon;timestamp;P1;durP1;ratioP1;P2;durP2;ratioP2
14975;SDS011;7584;60.468;25.126;2023-08-24T00:01:27;3.83;;;1.60;;
14975;SDS011;7584;60.468;25.126;2023-08-24T00:03:53;4.57;;;1.60;;
14975;SDS011;7584;60.468;25.126;2023-08-24T00:06:18;3.13;;;1.60;;
14975;SDS011;7584;60.468;25.126;2023-08-24T00:08:43;2.93;;;1.93;;
14975;SDS011;7584;60.468;25.126;2023-08-24T00:11:09;5.00;;;1.90;;
14975;SDS011;7584;60.468;25.126;2023-08-24T00:13:40;4.47;;;2.10;;
14975;SDS011;7584;60.468;25.126;2023-08-24T00:16:05;2.90;;;1.90;;
14975;SDS011;7584;60.468;25.126;2023-08-24T00:18:30;20.30;;;3.33;;
14975;SDS011;7584;60.468;25.126;2023-08-24T00:20:55;17.77;;;3.83;;
14975;SDS011;7584;60.468;25.126;2023-08-24T00:23:21;27.00;;;4.47;;
14975;SDS011;7584;60.468;25.126;2023-08-24T00:25:46;51.23;;;6.53;;
14975;SDS011;7584;60.468;25.126;2023-08-24T00:28:11;71.30;;;8.13;;
14975;SDS011;7584;60.468;25.126;2023-08-24T00:30:37;61.10;;;7.47;;
14975;SDS011;7584;60.468;25.126;2023-08-24T00:33:02;55.63;;;7.47;;
14975;SDS011;7584;60.468;25.126;2023-08-24T00:35:27;51.07;;;6.27;;
14975;SDS011;7584;60.468;25.126;2023-08-24T00:37:53;59.53;;;7.00;;
14975;SDS011;7584;60.468;25.126;2023-08-24T00:40:19;52.93;;;6.40;;
14975;SDS011;7584;60.468;25.126;2023-08-24T00:42:44;49.33;;;6.23;;
14975;SDS011;7584;60.468;25.126;2023-08-24T00:45:11;33.40;;;4.73;;
14975;SDS011;7584;60.468;25.126;2023-08-24T00:47:40;46.60;;;5.30;;
14975;SDS011;7584;60.468;25.126;2023-08-24T00:50:06;40.53;;;4.87;;
14975;SDS011;7584;60.468;25.126;2023-08-24T00:52:32;50.47;;;4.93;;
14975;SDS011;7584;60.468;25.126;2023-08-24T00:54:58;48.27;;;5.07;;
14975;SDS011;7584;60.468;25.126;2023-08-24T00:57:24;43.87;;;5.17;;
14975;SDS011;7584;60.468;25.126;2023-08-24T00:59:49;40.90;;;5.00;;
14975;SDS011;7584;60.468;25.126;2023-08-24T01:02:14;57.07;;;5.70;;
14975;SDS011;7584;60.468;25.126;2023-08-24T01:04:43;41.87;;;4.93;;
14975;SDS011;7584;60.468;25.126;2023-08-24T01:07:09;30.00;;;4.77;;
14975;SDS011;7584;60.468;25.126;2023-08-24T01:09:35;41.63;;;5.13;;
14975;SDS011;7584;60.468;25.126;2023-08-24T01:17:13;37.83;;;4.23;;
14975;SDS011;7584;60.468;25.126;2023-08-24T01:19:43;27.07;;;3.47;;
14975;SDS011;7584;60.468;25.126;2023-08-24T01:22:20;17.70;;;3.23;;
14975;SDS011;7584;60.468;25.126;2023-08-24T01:24:53;10.80;;;3.27;;
14975;SDS011;7584;60.468;25.126;2023-08-24T01:27:18;11.47;;;3.00;;
14975;SDS011;7584;60.468;25.126;2023-08-24T01:29:44;12.57;;;3.47;;
14975;SDS011;7584;60.468;25.126;2023-08-24T01:32:10;9.73;;;2.73;;
14975;SDS011;7584;60.468;25.126;2023-08-24T01:34:37;9.77;;;3.00;;
14975;SDS011;7584;60.468;25.126;2023-08-24T01:37:03;8.40;;;3.50;;
14975;SDS011;7584;60.468;25.126;2023-08-24T01:39:32;8.73;;;2.93;;
14975;SDS011;7584;60.468;25.126;2023-08-24T01:42:00;10.13;;;3.00;;
14975;SDS011;7584;60.468;25.126;2023-08-24T01:44:27;11.37;;;2.70;;
14975;SDS011;7584;60.468;25.126;2023-08-24T01:46:53;6.53;;;3.17;;
14975;SDS011;7584;60.468;25.126;2023-08-24T01:49:19;8.30;;;3.30;;
14975;SDS011;7584;60.468;25.126;2023-08-24T01:51:45;9.83;;;3.40;;
14975;SDS011;7584;60.468;25.126;2023-08-24T01:54:10;16.97;;;3.60;;
14975;SDS011;7584;60.468;25.126;2023-08-24T01:56:36;7.93;;;3.13;;
14975;SDS011;7584;60.468;25.126;2023-08-24T01:59:02;14.93;;;3.40;;
14975;SDS011;7584;60.468;25.126;2023-08-24T02:01:27;10.03;;;3.10;;
14975;SDS011;7584;60.468;25.126;2023-08-24T02:03:52;8.50;;;3.13;;
14975;SDS011;7584;60.468;25.126;2023-08-24T02:06:17;7.10;;;3.13;;
14975;SDS011;7584;60.468;25.126;2023-08-24T02:08:43;13.63;;;2.97;;
14975;SDS011;7584;60.468;25.126;2023-08-24T02:11:09;13.03;;;2.93;;
14975;SDS011;7584;60.468;25.126;2023-08-24T02:13:35;8.73;;;3.20;;
14975;SDS011;7584;60.468;25.126;2023-08-24T02:16:07;9.67;;;3.07;;
14975;SDS011;7584;60.468;25.126;2023-08-24T02:18:33;7.47;;;3.00;;
14975;SDS011;7584;60.468;25.126;2023-08-24T02:20:59;10.50;;;3.50;;
14975;SDS011;7584;60.468;25.126;2023-08-24T02:23:24;3.47;;;2.93;;
14975;SDS011;7584;60.468;25.126;2023-08-24T02:25:49;7.73;;;3.90;;
14975;SDS011;7584;60.468;25.126;2023-08-24T02:28:15;14.47;;;3.50;;
14975;SDS011;7584;60.468;25.126;2023-08-24T02:30:40;14.20;;;3.40;;
14975;SDS011;7584;60.468;25.126;2023-08-24T02:33:05;5.50;;;3.57;;
14975;SDS011;7584;60.468;25.126;2023-08-24T02:35:31;17.97;;;3.60;;
14975;SDS011;7584;60.468;25.126;2023-08-24T02:37:56;5.97;;;3.57;;
14975;SDS011;7584;60.468;25.126;2023-08-24T02:40:22;12.40;;;3.50;;
14975;SDS011;7584;60.468;25.126;2023-08-24T02:42:47;22.97;;;4.30;;
14975;SDS011;7584;60.468;25.126;2023-08-24T02:45:12;18.30;;;4.10;;
14975;SDS011;7584;60.468;25.126;2023-08-24T02:47:38;17.73;;;4.37;;
14975;SDS011;7584;60.468;25.126;2023-08-24T02:50:04;25.10;;;4.87;;
14975;SDS011;7584;60.468;25.126;2023-08-24T02:52:29;30.27;;;5.00;;
14975;SDS011;7584;60.468;25.126;2023-08-24T02:54:55;18.90;;;4.13;;
14975;SDS011;7584;60.468;25.126;2023-08-24T02:57:20;67.87;;;7.03;;
14975;SDS011;7584;60.468;25.126;2023-08-24T02:59:45;272.33;;;18.37;;
14975;SDS011;7584;60.468;25.126;2023-08-24T03:02:10;191.10;;;14.17;;
14975;SDS011;7584;60.468;25.126;2023-08-24T03:04:36;105.83;;;9.43;;
14975;SDS011;7584;60.468;25.126;2023-08-24T03:07:01;157.13;;;12.77;;
14975;SDS011;7584;60.468;25.126;2023-08-24T03:09:26;169.30;;;12.47;;
14975;SDS011;7584;60.468;25.126;2023-08-24T03:11:52;119.73;;;10.53;;
14975;SDS011;7584;60.468;25.126;2023-08-24T03:14:17;52.23;;;7.03;;
14975;SDS011;7584;60.468;25.126;2023-08-24T03:16:43;63.73;;;7.93;;
14975;SDS011;7584;60.468;25.126;2023-08-24T03:19:09;59.17;;;6.80;;
14975;SDS011;7584;60.468;25.126;2023-08-24T03:21:34;154.70;;;11.53;;
14975;SDS011;7584;60.468;25.126;2023-08-24T03:24:00;102.07;;;9.37;;
14975;SDS011;7584;60.468;25.126;2023-08-24T03:26:25;72.63;;;7.80;;
14975;SDS011;7584;60.468;25.126;2023-08-24T03:28:50;61.43;;;7.27;;
14975;SDS011;7584;60.468;25.126;2023-08-24T03:31:16;57.03;;;7.27;;
14975;SDS011;7584;60.468;25.126;2023-08-24T03:33:41;36.67;;;6.13;;
14975;SDS011;7584;60.468;25.126;2023-08-24T03:36:06;43.77;;;7.23;;
14975;SDS011;7584;60.468;25.126;2023-08-24T03:38:32;69.97;;;7.50;;
14975;SDS011;7584;60.468;25.126;2023-08-24T03:41:01;68.93;;;8.63;;
14975;SDS011;7584;60.468;25.126;2023-08-24T03:43:26;65.27;;;7.43;;
14975;SDS011;7584;60.468;25.126;2023-08-24T03:45:52;35.23;;;6.37;;
14975;SDS011;7584;60.468;25.126;2023-08-24T03:48:17;46.00;;;6.60;;
14975;SDS011;7584;60.468;25.126;2023-08-24T03:50:43;61.17;;;7.13;;
14975;SDS011;7584;60.468;25.126;2023-08-24T03:53:08;70.73;;;8.03;;
14975;SDS011;7584;60.468;25.126;2023-08-24T03:55:33;56.67;;;7.10;;
14975;SDS011;7584;60.468;25.126;2023-08-24T03:57:59;39.47;;;7.03;;
14975;SDS011;7584;60.468;25.126;2023-08-24T04:00:24;58.27;;;6.27;;
14975;SDS011;7584;60.468;25.126;2023-08-24T04:02:51;86.13;;;8.53;;
14975;SDS011;7584;60.468;25.126;2023-08-24T04:05:16;27.07;;;5.40;;
14975;SDS011;7584;60.468;25.126;2023-08-24T04:07:41;56.50;;;7.03;;
14975;SDS011;7584;60.468;25.126;2023-08-24T04:10:07;51.17;;;6.10;;
14975;SDS011;7584;60.468;25.126;2023-08-24T04:12:33;35.53;;;5.70;;
14975;SDS011;7584;60.468;25.126;2023-08-24T04:14:58;58.30;;;6.63;;
14975;SDS011;7584;60.468;25.126;2023-08-24T04:17:24;51.97;;;5.93;;
14975;SDS011;7584;60.468;25.126;2023-08-24T04:19:49;112.27;;;9.37;;
14975;SDS011;7584;60.468;25.126;2023-08-24T04:22:15;110.30;;;9.40;;
14975;SDS011;7584;60.468;25.126;2023-08-24T04:24:40;30.63;;;5.23;;
14975;SDS011;7584;60.468;25.126;2023-08-24T04:27:05;70.67;;;7.23;;
14975;SDS011;7584;60.468;25.126;2023-08-24T04:29:31;70.47;;;6.70;;
14975;SDS011;7584;60.468;25.126;2023-08-24T04:31:56;72.10;;;7.47;;
14975;SDS011;7584;60.468;25.126;2023-08-24T04:34:22;44.87;;;6.17;;
14975;SDS011;7584;60.468;25.126;2023-08-24T04:36:47;33.77;;;4.83;;
14975;SDS011;7584;60.468;25.126;2023-08-24T04:39:12;67.43;;;7.27;;
14975;SDS011;7584;60.468;25.126;2023-08-24T04:41:38;41.07;;;5.57;;
14975;SDS011;7584;60.468;25.126;2023-08-24T04:44:03;49.30;;;5.87;;
14975;SDS011;7584;60.468;25.126;2023-08-24T04:46:29;23.17;;;4.60;;
14975;SDS011;7584;60.468;25.126;2023-08-24T04:48:54;37.60;;;5.83;;
14975;SDS011;7584;60.468;25.126;2023-08-24T04:51:19;29.30;;;4.83;;
14975;SDS011;7584;60.468;25.126;2023-08-24T04:53:45;26.27;;;4.43;;
14975;SDS011;7584;60.468;25.126;2023-08-24T04:56:10;28.47;;;4.57;;
14975;SDS011;7584;60.468;25.126;2023-08-24T04:58:36;25.43;;;4.43;;
14975;SDS011;7584;60.468;25.126;2023-08-24T05:01:01;23.10;;;4.50;;
14975;SDS011;7584;60.468;25.126;2023-08-24T05:03:26;18.37;;;4.17;;
14975;SDS011;7584;60.468;25.126;2023-08-24T05:05:52;14.70;;;4.10;;
14975;SDS011;7584;60.468;25.126;2023-08-24T05:08:17;23.97;;;4.73;;
14975;SDS011;7584;60.468;25.126;2023-08-24T05:10:43;30.10;;;4.63;;
14975;SDS011;7584;60.468;25.126;2023-08-24T05:13:08;20.77;;;3.77;;
14975;SDS011;7584;60.468;25.126;2023-08-24T05:15:34;20.80;;;3.93;;
14975;SDS011;7584;60.468;25.126;2023-08-24T05:17:59;22.80;;;4.30;;
14975;SDS011;7584;60.468;25.126;2023-08-24T05:20:25;27.23;;;4.77;;
14975;SDS011;7584;60.468;25.126;2023-08-24T05:22:50;32.80;;;4.40;;
14975;SDS011;7584;60.468;25.126;2023-08-24T05:25:16;16.67;;;3.90;;
14975;SDS011;7584;60.468;25.126;2023-08-24T05:27:41;30.80;;;4.80;;
14975;SDS011;7584;60.468;25.126;2023-08-24T05:30:07;20.03;;;4.00;;
14975;SDS011;7584;60.468;25.126;2023-08-24T05:32:32;26.67;;;4.10;;
14975;SDS011;7584;60.468;25.126;2023-08-24T05:34:58;18.73;;;4.20;;
14975;SDS011;7584;60.468;25.126;2023-08-24T05:37:23;8.37;;;3.53;;
14975;SDS011;7584;60.468;25.126;2023-08-24T05:39:49;12.57;;;3.47;;
14975;SDS011;7584;60.468;25.126;2023-08-24T05:42:14;5.20;;;3.20;;
14975;SDS011;7584;60.468;25.126;2023-08-24T05:44:39;10.27;;;3.15;;
14975;SDS011;7584;60.468;25.126;2023-08-24T05:47:05;8.53;;;3.30;;
14975;SDS011;7584;60.468;25.126;2023-08-24T05:49:30;3.47;;;2.92;;
14975;SDS011;7584;60.468;25.126;2023-08-24T05:51:55;6.55;;;2.85;;
14975;SDS011;7584;60.468;25.126;2023-08-24T05:54:21;5.50;;;2.87;;
14975;SDS011;7584;60.468;25.126;2023-08-24T05:56:46;7.80;;;3.50;;
14975;SDS011;7584;60.468;25.126;2023-08-24T05:59:12;5.22;;;3.13;;
14975;SDS011;7584;60.468;25.126;2023-08-24T06:01:37;4.38;;;3.08;;
14975;SDS011;7584;60.468;25.126;2023-08-24T06:04:07;3.60;;;3.30;;
14975;SDS011;7584;60.468;25.126;2023-08-24T06:06:32;9.57;;;3.72;;
14975;SDS011;7584;60.468;25.126;2023-08-24T06:08:57;9.07;;;3.78;;
14975;SDS011;7584;60.468;25.126;2023-08-24T06:11:23;7.70;;;4.00;;
14975;SDS011;7584;60.468;25.126;2023-08-24T06:13:48;10.82;;;3.97;;
14975;SDS011;7584;60.468;25.126;2023-08-24T06:16:13;7.03;;;4.30;;
14975;SDS011;7584;60.468;25.126;2023-08-24T06:18:39;10.45;;;4.07;;
14975;SDS011;7584;60.468;25.126;2023-08-24T06:21:04;5.15;;;3.95;;
14975;SDS011;7584;60.468;25.126;2023-08-24T06:23:29;6.22;;;4.40;;
14975;SDS011;7584;60.468;25.126;2023-08-24T06:25:55;8.23;;;5.10;;
14975;SDS011;7584;60.468;25.126;2023-08-24T06:28:20;5.68;;;4.90;;
14975;SDS011;7584;60.468;25.126;2023-08-24T06:30:45;6.97;;;4.88;;
14975;SDS011;7584;60.468;25.126;2023-08-24T06:33:12;6.30;;;4.55;;
14975;SDS011;7584;60.468;25.126;2023-08-24T06:35:38;10.68;;;4.82;;
14975;SDS011;7584;60.468;25.126;2023-08-24T06:38:03;5.90;;;5.25;;
14975;SDS011;7584;60.468;25.126;2023-08-24T06:40:29;6.18;;;5.32;;
14975;SDS011;7584;60.468;25.126;2023-08-24T06:42:54;9.98;;;6.03;;
14975;SDS011;7584;60.468;25.126;2023-08-24T06:45:20;12.45;;;5.78;;
14975;SDS011;7584;60.468;25.126;2023-08-24T06:47:45;5.90;;;4.82;;
14975;SDS011;7584;60.468;25.126;2023-08-24T06:50:11;8.57;;;5.53;;
14975;SDS011;7584;60.468;25.126;2023-08-24T06:52:36;14.25;;;6.03;;
14975;SDS011;7584;60.468;25.126;2023-08-24T06:55:02;6.25;;;5.57;;
14975;SDS011;7584;60.468;25.126;2023-08-24T06:57:27;7.72;;;5.13;;
14975;SDS011;7584;60.468;25.126;2023-08-24T06:59:52;6.03;;;5.25;;
14975;SDS011;7584;60.468;25.126;2023-08-24T07:02:18;5.90;;;4.45;;
14975;SDS011;7584;60.468;25.126;2023-08-24T07:04:43;5.40;;;4.82;;
14975;SDS011;7584;60.468;25.126;2023-08-24T07:07:09;5.75;;;4.47;;
14975;SDS011;7584;60.468;25.126;2023-08-24T07:09:34;6.68;;;4.25;;
14975;SDS011;7584;60.468;25.126;2023-08-24T07:12:01;5.40;;;4.40;;
14975;SDS011;7584;60.468;25.126;2023-08-24T07:14:26;5.05;;;4.50;;
14975;SDS011;7584;60.468;25.126;2023-08-24T07:16:51;5.55;;;4.32;;
14975;SDS011;7584;60.468;25.126;2023-08-24T07:19:17;4.18;;;3.58;;
14975;SDS011;7584;60.468;25.126;2023-08-24T07:21:42;4.20;;;3.80;;
14975;SDS011;7584;60.468;25.126;2023-08-24T07:24:08;4.47;;;4.07;;
14975;SDS011;7584;60.468;25.126;2023-08-24T07:26:33;7.18;;;3.70;;
14975;SDS011;7584;60.468;25.126;2023-08-24T07:28:58;4.65;;;3.25;;
14975;SDS011;7584;60.468;25.126;2023-08-24T07:31:24;3.88;;;3.58;;
14975;SDS011;7584;60.468;25.126;2023-08-24T07:33:50;4.97;;;3.60;;
14975;SDS011;7584;60.468;25.126;2023-08-24T07:36:15;4.10;;;3.63;;
14975;SDS011;7584;60.468;25.126;2023-08-24T07:38:41;4.63;;;4.22;;
14975;SDS011;7584;60.468;25.126;2023-08-24T07:41:06;4.10;;;3.70;;
14975;SDS011;7584;60.468;25.126;2023-08-24T07:43:32;3.47;;;3.17;;
14975;SDS011;7584;60.468;25.126;2023-08-24T07:45:58;3.20;;;2.90;;
14975;SDS011;7584;60.468;25.126;2023-08-24T07:48:23;5.05;;;3.80;;
14975;SDS011;7584;60.468;25.126;2023-08-24T07:50:48;3.50;;;3.20;;
14975;SDS011;7584;60.468;25.126;2023-08-24T07:53:14;5.80;;;3.30;;
14975;SDS011;7584;60.468;25.126;2023-08-24T07:55:39;3.83;;;3.53;;
14975;SDS011;7584;60.468;25.126;2023-08-24T07:58:04;5.03;;;3.30;;
14975;SDS011;7584;60.468;25.126;2023-08-24T08:00:30;3.88;;;3.58;;
14975;SDS011;7584;60.468;25.126;2023-08-24T08:02:55;4.45;;;3.25;;
14975;SDS011;7584;60.468;25.126;2023-08-24T08:05:21;3.70;;;3.38;;
14975;SDS011;7584;60.468;25.126;2023-08-24T08:07:48;3.88;;;3.30;;
14975;SDS011;7584;60.468;25.126;2023-08-24T08:10:13;4.45;;;3.70;;
14975;SDS011;7584;60.468;25.126;2023-08-24T08:12:38;3.28;;;2.97;;
14975;SDS011;7584;60.468;25.126;2023-08-24T08:15:04;2.75;;;2.55;;
14975;SDS011;7584;60.468;25.126;2023-08-24T08:17:29;3.78;;;2.88;;
14975;SDS011;7584;60.468;25.126;2023-08-24T08:19:55;3.05;;;2.60;;
14975;SDS011;7584;60.468;25.126;2023-08-24T08:22:21;2.35;;;2.15;;
14975;SDS011;7584;60.468;25.126;2023-08-24T08:24:46;4.72;;;2.78;;
14975;SDS011;7584;60.468;25.126;2023-08-24T08:27:11;3.40;;;2.50;;
14975;SDS011;7584;60.468;25.126;2023-08-24T08:29:36;2.53;;;2.33;;
14975;SDS011;7584;60.468;25.126;2023-08-24T08:32:02;2.70;;;2.50;;
14975;SDS011;7584;60.468;25.126;2023-08-24T08:34:27;2.85;;;1.92;;
14975;SDS011;7584;60.468;25.126;2023-08-24T08:36:53;3.38;;;2.50;;
14975;SDS011;7584;60.468;25.126;2023-08-24T08:39:18;2.75;;;2.50;;
14975;SDS011;7584;60.468;25.126;2023-08-24T08:41:43;2.50;;;2.20;;
14975;SDS011;7584;60.468;25.126;2023-08-24T08:44:12;6.15;;;2.17;;
14975;SDS011;7584;60.468;25.126;2023-08-24T08:46:38;1.90;;;1.80;;
14975;SDS011;7584;60.468;25.126;2023-08-24T08:49:04;2.03;;;1.90;;
14975;SDS011;7584;60.468;25.126;2023-08-24T08:51:31;3.50;;;1.92;;
14975;SDS011;7584;60.468;25.126;2023-08-24T08:53:57;2.95;;;2.00;;
14975;SDS011;7584;60.468;25.126;2023-08-24T08:56:22;2.72;;;1.77;;
14975;SDS011;7584;60.468;25.126;2023-08-24T08:58:48;2.22;;;1.80;;
14975;SDS011;7584;60.468;25.126;2023-08-24T09:01:13;2.33;;;1.95;;
14975;SDS011;7584;60.468;25.126;2023-08-24T09:03:39;2.13;;;1.90;;
14975;SDS011;7584;60.468;25.126;2023-08-24T09:06:04;2.75;;;2.00;;
14975;SDS011;7584;60.468;25.126;2023-08-24T09:08:30;2.00;;;1.73;;
14975;SDS011;7584;60.468;25.126;2023-08-24T09:10:55;2.65;;;1.73;;
14975;SDS011;7584;60.468;25.126;2023-08-24T09:13:21;1.75;;;1.40;;
14975;SDS011;7584;60.468;25.126;2023-08-24T09:15:46;2.75;;;1.70;;
14975;SDS011;7584;60.468;25.126;2023-08-24T09:18:11;1.90;;;1.73;;
14975;SDS011;7584;60.468;25.126;2023-08-24T09:20:37;1.90;;;1.73;;
14975;SDS011;7584;60.468;25.126;2023-08-24T09:23:02;1.90;;;1.60;;
14975;SDS011;7584;60.468;25.126;2023-08-24T09:25:28;2.47;;;1.63;;
14975;SDS011;7584;60.468;25.126;2023-08-24T09:27:56;1.58;;;1.48;;
14975;SDS011;7584;60.468;25.126;2023-08-24T09:30:22;1.98;;;1.50;;
14975;SDS011;7584;60.468;25.126;2023-08-24T09:32:47;3.67;;;1.58;;
14975;SDS011;7584;60.468;25.126;2023-08-24T09:35:12;1.75;;;1.52;;
14975;SDS011;7584;60.468;25.126;2023-08-24T09:37:38;5.70;;;1.55;;
14975;SDS011;7584;60.468;25.126;2023-08-24T09:40:04;3.22;;;1.67;;
14975;SDS011;7584;60.468;25.126;2023-08-24T09:42:40;2.20;;;2.00;;
14975;SDS011;7584;60.468;25.126;2023-08-24T09:45:07;4.65;;;1.80;;
14975;SDS011;7584;60.468;25.126;2023-08-24T09:47:35;1.60;;;1.50;;
14975;SDS011;7584;60.468;25.126;2023-08-24T09:50:00;5.10;;;1.80;;
14975;SDS011;7584;60.468;25.126;2023-08-24T09:52:25;1.77;;;1.67;;
14975;SDS011;7584;60.468;25.126;2023-08-24T09:54:54;2.25;;;1.50;;
14975;SDS011;7584;60.468;25.126;2023-08-24T09:57:20;2.78;;;1.60;;
14975;SDS011;7584;60.468;25.126;2023-08-24T09:59:45;1.65;;;1.48;;
14975;SDS011;7584;60.468;25.126;2023-08-24T10:02:14;1.75;;;1.65;;
14975;SDS011;7584;60.468;25.126;2023-08-24T10:04:41;2.58;;;1.58;;
14975;SDS011;7584;60.468;25.126;2023-08-24T10:07:08;1.52;;;1.42;;
14975;SDS011;7584;60.468;25.126;2023-08-24T10:09:40;2.90;;;1.52;;
14975;SDS011;7584;60.468;25.126;2023-08-24T10:12:07;3.22;;;1.50;;
14975;SDS011;7584;60.468;25.126;2023-08-24T10:14:36;2.15;;;1.60;;
14975;SDS011;7584;60.468;25.126;2023-08-24T10:17:03;1.73;;;1.40;;
14975;SDS011;7584;60.468;25.126;2023-08-24T10:19:29;2.25;;;1.35;;
14975;SDS011;7584;60.468;25.126;2023-08-24T10:21:55;2.88;;;1.50;;
14975;SDS011;7584;60.468;25.126;2023-08-24T10:24:22;2.33;;;1.52;;
14975;SDS011;7584;60.468;25.126;2023-08-24T10:26:47;3.47;;;1.58;;
14975;SDS011;7584;60.468;25.126;2023-08-24T10:29:13;2.30;;;1.70;;
14975;SDS011;7584;60.468;25.126;2023-08-24T10:31:40;1.65;;;1.27;;
14975;SDS011;7584;60.468;25.126;2023-08-24T10:34:06;1.70;;;1.60;;
14975;SDS011;7584;60.468;25.126;2023-08-24T10:36:32;2.35;;;1.73;;
14975;SDS011;7584;60.468;25.126;2023-08-24T10:38:57;2.42;;;2.10;;
14975;SDS011;7584;60.468;25.126;2023-08-24T10:41:29;2.33;;;1.77;;
14975;SDS011;7584;60.468;25.126;2023-08-24T10:44:03;2.10;;;1.90;;
14975;SDS011;7584;60.468;25.126;2023-08-24T10:46:29;3.10;;;1.80;;
14975;SDS011;7584;60.468;25.126;2023-08-24T10:48:59;3.13;;;2.00;;
14975;SDS011;7584;60.468;25.126;2023-08-24T10:51:25;2.65;;;2.03;;
14975;SDS011;7584;60.468;25.126;2023-08-24T10:53:58;2.80;;;1.80;;
14975;SDS011;7584;60.468;25.126;2023-08-24T10:56:31;2.58;;;1.92;;
14975;SDS011;7584;60.468;25.126;2023-08-24T11:01:55;2.20;;;2.00;;
14975;SDS011;7584;60.468;25.126;2023-08-24T11:04:21;4.03;;;1.90;;
14975;SDS011;7584;60.468;25.126;2023-08-24T11:06:59;3.00;;;1.90;;
14975;SDS011;7584;60.468;25.126;2023-08-24T11:09:27;2.10;;;1.80;;
14975;SDS011;7584;60.468;25.126;2023-08-24T11:12:09;3.55;;;2.30;;
14975;SDS011;7584;60.468;25.126;2023-08-24T11:14:34;5.57;;;2.35;;
14975;SDS011;7584;60.468;25.126;2023-08-24T11:17:19;5.10;;;2.60;;
14975;SDS011;7584;60.468;25.126;2023-08-24T11:19:47;5.00;;;2.30;;
14975;SDS011;7584;60.468;25.126;2023-08-24T11:22:12;4.20;;;2.28;;
14975;SDS011;7584;60.468;25.126;2023-08-24T11:24:38;4.15;;;2.63;;
14975;SDS011;7584;60.468;25.126;2023-08-24T11:27:03;4.82;;;2.33;;
14975;SDS011;7584;60.468;25.126;2023-08-24T11:29:28;3.97;;;2.08;;
14975;SDS011;7584;60.468;25.126;2023-08-24T11:31:54;2.30;;;1.80;;
14975;SDS011;7584;60.468;25.126;2023-08-24T11:34:19;3.92;;;1.83;;
14975;SDS011;7584;60.468;25.126;2023-08-24T11:36:46;3.00;;;1.75;;
14975;SDS011;7584;60.468;25.126;2023-08-24T11:39:18;2.42;;;1.48;;
14975;SDS011;7584;60.468;25.126;2023-08-24T11:41:45;2.25;;;1.25;;
14975;SDS011;7584;60.468;25.126;2023-08-24T11:44:21;6.88;;;1.40;;
14975;SDS011;7584;60.468;25.126;2023-08-24T11:46:46;3.95;;;1.40;;
14975;SDS011;7584;60.468;25.126;2023-08-24T11:49:11;2.03;;;1.00;;
14975;SDS011;7584;60.468;25.126;2023-08-24T11:51:37;2.60;;;1.10;;
14975;SDS011;7584;60.468;25.126;2023-08-24T11:54:02;3.13;;;1.20;;
14975;SDS011;7584;60.468;25.126;2023-08-24T11:56:29;5.05;;;1.10;;
14975;SDS011;7584;60.468;25.126;2023-08-24T11:58:54;4.65;;;1.02;;
14975;SDS011;7584;60.468;25.126;2023-08-24T12:01:20;2.33;;;1.08;;
14975;SDS011;7584;60.468;25.126;2023-08-24T12:03:45;1.63;;;1.03;;
14975;SDS011;7584;60.468;25.126;2023-08-24T12:06:12;1.13;;;0.98;;
14975;SDS011;7584;60.468;25.126;2023-08-24T12:08:38;2.60;;;0.93;;
14975;SDS011;7584;60.468;25.126;2023-08-24T12:11:09;3.38;;;1.40;;
14975;SDS011;7584;60.468;25.126;2023-08-24T12:13:34;3.65;;;1.05;;
14975;SDS011;7584;60.468;25.126;2023-08-24T12:16:00;5.27;;;1.27;;
14975;SDS011;7584;60.468;25.126;2023-08-24T12:18:26;2.92;;;1.30;;
14975;SDS011;7584;60.468;25.126;2023-08-24T12:20:52;2.07;;;1.07;;
14975;SDS011;7584;60.468;25.126;2023-08-24T12:23:17;2.95;;;1.35;;
14975;SDS011;7584;60.468;25.126;2023-08-24T12:25:42;2.28;;;1.35;;
14975;SDS011;7584;60.468;25.126;2023-08-24T12:28:12;4.17;;;1.30;;
14975;SDS011;7584;60.468;25.126;2023-08-24T12:30:50;3.60;;;1.60;;
14975;SDS011;7584;60.468;25.126;2023-08-24T12:33:22;2.67;;;1.30;;
14975;SDS011;7584;60.468;25.126;2023-08-24T12:35:48;2.60;;;0.85;;
14975;SDS011;7584;60.468;25.126;2023-08-24T12:38:13;5.00;;;1.43;;
14975;SDS011;7584;60.468;25.126;2023-08-24T12:40:39;2.75;;;1.42;;
14975;SDS011;7584;60.468;25.126;2023-08-24T12:43:04;2.38;;;0.98;;
14975;SDS011;7584;60.468;25.126;2023-08-24T12:45:29;2.53;;;1.10;;
14975;SDS011;7584;60.468;25.126;2023-08-24T12:47:54;2.92;;;1.05;;
14975;SDS011;7584;60.468;25.126;2023-08-24T12:50:20;4.53;;;1.20;;
14975;SDS011;7584;60.468;25.126;2023-08-24T12:52:45;2.90;;;1.08;;
14975;SDS011;7584;60.468;25.126;2023-08-24T12:55:10;2.70;;;1.15;;
14975;SDS011;7584;60.468;25.126;2023-08-24T12:57:36;6.13;;;1.37;;
14975;SDS011;7584;60.468;25.126;2023-08-24T13:00:01;3.20;;;0.85;;
14975;SDS011;7584;60.468;25.126;2023-08-24T13:02:28;3.20;;;1.13;;
14975;SDS011;7584;60.468;25.126;2023-08-24T13:04:53;4.60;;;1.60;;
14975;SDS011;7584;60.468;25.126;2023-08-24T13:07:18;1.83;;;1.17;;
14975;SDS011;7584;60.468;25.126;2023-08-24T13:09:44;2.67;;;1.05;;
14975;SDS011;7584;60.468;25.126;2023-08-24T13:12:09;4.43;;;1.20;;
14975;SDS011;7584;60.468;25.126;2023-08-24T13:14:34;2.20;;;0.98;;
14975;SDS011;7584;60.468;25.126;2023-08-24T13:17:00;2.85;;;1.00;;
14975;SDS011;7584;60.468;25.126;2023-08-24T13:19:25;3.40;;;1.10;;
14975;SDS011;7584;60.468;25.126;2023-08-24T13:21:51;2.50;;;1.23;;
14975;SDS011;7584;60.468;25.126;2023-08-24T13:24:16;1.65;;;1.40;;
14975;SDS011;7584;60.468;25.126;2023-08-24T13:26:41;1.70;;;0.90;;
14975;SDS011;7584;60.468;25.126;2023-08-24T13:29:06;1.57;;;1.10;;
14975;SDS011;7584;60.468;25.126;2023-08-24T13:31:32;3.17;;;1.30;;
14975;SDS011;7584;60.468;25.126;2023-08-24T13:33:57;2.58;;;1.15;;
14975;SDS011;7584;60.468;25.126;2023-08-24T13:36:22;1.60;;;1.00;;
14975;SDS011;7584;60.468;25.126;2023-08-24T13:38:48;2.95;;;1.10;;
14975;SDS011;7584;60.468;25.126;2023-08-24T13:41:15;1.60;;;1.30;;
14975;SDS011;7584;60.468;25.126;2023-08-24T13:43:40;1.80;;;1.15;;
14975;SDS011;7584;60.468;25.126;2023-08-24T13:46:07;2.40;;;1.10;;
14975;SDS011;7584;60.468;25.126;2023-08-24T13:48:32;5.55;;;1.30;;
14975;SDS011;7584;60.468;25.126;2023-08-24T13:51:00;1.90;;;1.50;;
14975;SDS011;7584;60.468;25.126;2023-08-24T13:53:25;2.45;;;1.35;;
14975;SDS011;7584;60.468;25.126;2023-08-24T13:55:51;4.55;;;1.33;;
14975;SDS011;7584;60.468;25.126;2023-08-24T13:58:16;2.15;;;1.40;;
14975;SDS011;7584;60.468;25.126;2023-08-24T14:00:41;2.35;;;1.60;;
14975;SDS011;7584;60.468;25.126;2023-08-24T14:03:07;2.15;;;1.60;;
14975;SDS011;7584;60.468;25.126;2023-08-24T14:05:33;2.75;;;1.63;;
14975;SDS011;7584;60.468;25.126;2023-08-24T14:07:58;2.58;;;1.40;;
14975;SDS011;7584;60.468;25.126;2023-08-24T14:10:23;2.97;;;1.52;;
14975;SDS011;7584;60.468;25.126;2023-08-24T14:12:49;2.97;;;1.38;;
14975;SDS011;7584;60.468;25.126;2023-08-24T14:15:14;2.05;;;1.60;;
14975;SDS011;7584;60.468;25.126;2023-08-24T14:17:39;2.22;;;1.50;;
14975;SDS011;7584;60.468;25.126;2023-08-24T14:20:04;1.83;;;1.33;;
14975;SDS011;7584;60.468;25.126;2023-08-24T14:22:30;1.92;;;1.50;;
14975;SDS011;7584;60.468;25.126;2023-08-24T14:24:55;4.15;;;1.83;;
14975;SDS011;7584;60.468;25.126;2023-08-24T14:27:21;1.85;;;1.25;;
14975;SDS011;7584;60.468;25.126;2023-08-24T14:29:46;2.00;;;1.50;;
14975;SDS011;7584;60.468;25.126;2023-08-24T14:32:11;1.80;;;1.48;;
14975;SDS011;7584;60.468;25.126;2023-08-24T14:34:36;3.72;;;1.23;;
14975;SDS011;7584;60.468;25.126;2023-08-24T14:37:02;3.70;;;1.30;;
14975;SDS011;7584;60.468;25.126;2023-08-24T14:39:28;5.82;;;1.58;;
14975;SDS011;7584;60.468;25.126;2023-08-24T14:41:53;1.75;;;1.10;;
14975;SDS011;7584;60.468;25.126;2023-08-24T14:44:18;1.63;;;0.80;;